Flinter Rose — PBUB — position and weather

sailwx.info

Track history (hours):
 
Tides and Currents Weather Stations Pressure Air Temp Water Temp Dewpoint Dewpoint Depression Visibility Wind Speed Wind Dir Waves Ship Positions

Flinter Rose

Last reported at 2016-Feb-08 23:33 UTC. Time now 2016-Feb-09 13:44 UTC.
Position N 40°14' E 003°27'.

Length 101 m; draft 6.5 m.

Type: Cargo ship. MMSI: 246227000.

Date/timePositionNaut miles runAvg speedWind from/ knotsBaromVisibWave heightAir tempDewpointWater temp
2016-Feb-08 23:33N 40°14' E 003°27'1211.1
2016-Feb-08 22:28N 40°07' E 003°14'1010.8
2016-Feb-08 21:31N 40°02' E 003°03'1111.2
2016-Feb-08 20:33N 39°56' E 002°51'1211.7
2016-Feb-08 19:33N 39°50' E 002°38'1111.2
2016-Feb-08 18:32N 39°43' E 002°26'1010.4
2016-Feb-08 17:33N 39°37' E 002°15'1010.2
2016-Feb-08 16:33N 39°31' E 002°04'1010.4
2016-Feb-08 15:33N 39°25' E 001°53'1110.6
2016-Feb-08 14:31N 39°19' E 001°42'138 9.9
2016-Feb-08 00:33N 37°41' W 000°22'1110.9
2016-Feb-07 23:33N 37°33' W 000°31'1110.7
2016-Feb-07 22:32N 37°26' W 000°41'1110.6
2016-Feb-07 21:30N 37°18' W 000°52'1010.8
2016-Feb-07 20:33N 37°11' W 001°01'21310.2
2016-Feb-06 23:33N 35°56' W 005°10'7 7.2
2016-Feb-06 22:31N 35°54' W 005°18'0 0.0
2016-Feb-06 21:31N 35°54' W 005°18'0 0.0
2016-Feb-06 20:31N 35°54' W 005°18'0 0.0
2016-Feb-06 19:31N 35°54' W 005°18'0 0.0
2016-Feb-06 18:31N 35°54' W 005°18'0 0.0
2016-Feb-06 17:33N 35°54' W 005°18'2 2.4
2016-Feb-06 16:33N 35°56' W 005°20'3 2.7
2016-Feb-06 15:34N 35°56' W 005°23'1211.1
2016-Feb-06 14:30N 35°54' W 005°37'11810.8
2016-Feb-06 03:33N 36°17' W 008°00'1110.6
2016-Feb-06 02:33N 36°20' W 008°13'1110.1
2016-Feb-06 01:30N 36°23' W 008°26'1010.1
2016-Feb-06 00:33N 36°25' W 008°37'1110.7
2016-Feb-05 23:33N 36°28' W 008°50'1110.0
2016-Feb-05 22:30N 36°31' W 009°03'1010.0
2016-Feb-05 21:33N 36°33' W 009°14'1010.0
2016-Feb-05 20:33N 36°40' W 009°24'10 9.6
2016-Feb-05 19:30N 36°47' W 009°32'9 9.4
2016-Feb-05 18:33N 36°56' W 009°35'9 9.5
2016-Feb-05 17:33N 37°05' W 009°38'1010.0
2016-Feb-05 16:33N 37°14' W 009°41'10 9.9
2016-Feb-05 15:31N 37°24' W 009°44'2010.0
2016-Feb-05 13:31N 37°44' W 009°49'1010.4
2016-Feb-05 12:33N 37°54' W 009°52'1211.3
2016-Feb-05 11:28N 38°06' W 009°56'1010.5
2016-Feb-05 10:31N 38°15' W 009°59'1010.0
2016-Feb-05 09:33N 38°25' W 010°02'1010.5
2016-Feb-05 08:33N 38°35' W 010°05'1010.4
2016-Feb-05 07:33N 38°45' W 010°06'1110.5
2016-Feb-05 06:33N 38°56' W 010°06'1010.5
2016-Feb-05 05:33N 39°06' W 010°06'1010.5
2016-Feb-05 04:34N 39°17' W 010°06'1210.8
2016-Feb-05 03:28N 39°28' W 010°06'1010.3
2016-Feb-05 02:31N 39°38' W 010°06'1111.0
2016-Feb-05 01:31N 39°49' W 010°06'1210.1
2016-Feb-05 00:19N 40°01' W 010°06'910.6
2016-Feb-04 23:31N 40°10' W 010°06'1110.9
2016-Feb-04 22:31N 40°21' W 010°06'9 9.6
2016-Feb-04 21:33N 40°30' W 010°06'1311.6
2016-Feb-04 20:28N 40°43' W 010°06'1010.3
2016-Feb-04 19:31N 40°52' W 010°06'2210.8
2016-Feb-04 17:28N 41°15' W 010°06'1010.2
2016-Feb-04 16:31N 41°24' W 010°06'1110.0
2016-Feb-04 15:28N 41°35' W 010°06'1010.4
2016-Feb-04 14:28N 41°45' W 010°06'9 9.6
2016-Feb-04 13:31N 41°54' W 010°06'  
2016-Feb-01 04:31N 50°35' E 000°16'7 7.7
2016-Feb-01 03:33N 50°37' E 000°27'7 6.6
2016-Feb-01 02:33N 50°40' E 000°37'6 6.2
2016-Feb-01 01:33N 50°43' E 000°45'6 6.1
2016-Feb-01 00:33N 50°47' E 000°53'26 8.2
2016-Jan-31 21:20N 51°03' E 001°26'7 8.6
2016-Jan-31 20:33N 51°08' E 001°34'8 8.2
2016-Jan-31 19:33N 51°13' E 001°44'8 8.1
2016-Jan-31 18:33N 51°19' E 001°52'8 8.0
2016-Jan-31 17:33N 51°25' E 002°01'9 8.8
2016-Jan-31 16:34N 51°22' E 002°14'8 8.1
2016-Jan-31 15:33N 51°22' E 002°27'9 8.3
2016-Jan-31 14:31N 51°22' E 002°41'9 9.5
2016-Jan-31 13:33N 51°23' E 002°55'1111.1
2016-Jan-31 12:33N 51°25' E 003°13'1211.7
2016-Jan-31 11:33N 51°25' E 003°32'8 8.0
2016-Jan-31 10:33N 51°23' E 003°44'5 4.8
2016-Jan-31 09:34N 51°19' E 003°49'5 5.1
2016-Jan-31 08:34N 51°14' E 003°49'4 3.7
2016-Jan-31 07:31N 51°11' E 003°48'0 0.0
2016-Jan-31 06:31N 51°11' E 003°48'0 0.0
2016-Jan-31 05:31N 51°11' E 003°48'0 0.0
2016-Jan-31 04:33N 51°11' E 003°48'0 0.0
2016-Jan-31 03:33N 51°11' E 003°48'0 0.0
2016-Jan-31 02:33N 51°11' E 003°48'0 0.0
2016-Jan-31 01:33N 51°11' E 003°48'0 0.0
2016-Jan-31 00:33N 51°11' E 003°48'0 0.0
2016-Jan-30 23:33N 51°11' E 003°48'0 0.0
2016-Jan-30 22:33N 51°11' E 003°48'0 0.0
2016-Jan-30 21:33N 51°11' E 003°48'0 0.0
2016-Jan-30 20:33N 51°11' E 003°48'0 0.0
2016-Jan-30 19:33N 51°11' E 003°48'0 0.0
2016-Jan-30 18:33N 51°11' E 003°48'0 0.0
2016-Jan-30 17:33N 51°11' E 003°48'0 0.0
2016-Jan-30 16:33N 51°11' E 003°48'0 0.0
2016-Jan-30 15:33N 51°11' E 003°48'0 0.0
2016-Jan-30 14:32N 51°11' E 003°48'0 0.0
2016-Jan-30 13:32N 51°11' E 003°48'0 0.0
2016-Jan-30 12:32N 51°11' E 003°48'0 0.0
2016-Jan-30 11:32N 51°11' E 003°48'0 0.0
2016-Jan-30 10:32N 51°11' E 003°48'0 0.0
2016-Jan-30 09:32N 51°11' E 003°48'0 0.0
2016-Jan-30 08:32N 51°11' E 003°48'0 0.0
2016-Jan-30 07:32N 51°11' E 003°48'0 0.0
2016-Jan-30 06:32N 51°11' E 003°48'0 0.0
2016-Jan-30 05:32N 51°11' E 003°48'0 0.0
2016-Jan-30 04:32N 51°11' E 003°48'0 0.0
2016-Jan-30 03:29N 51°11' E 003°48'0 0.0
2016-Jan-30 02:32N 51°11' E 003°48'0 0.0
2016-Jan-30 01:32N 51°11' E 003°48'0 0.0
2016-Jan-30 00:32N 51°11' E 003°48'  
Track history (hours):
 
Tides and Currents Weather Stations Pressure Air Temp Water Temp Dewpoint Dewpoint Depression Visibility Wind Speed Wind Dir Waves Ship Positions

Flinter Rose

Last reported at 2016-Feb-08 23:33 UTC. Time now 2016-Feb-09 13:44 UTC.
Position N 40°14' E 003°27'.

Length 101 m; draft 6.5 m.

Type: Cargo ship. MMSI: 246227000.

Date/timePositionNaut miles runAvg speedWind from/ knotsBaromVisibWave heightAir tempDewpointWater temp
2016-Feb-08 23:33N 40°14' E 003°27'1211.1
2016-Feb-08 22:28N 40°07' E 003°14'1010.8
2016-Feb-08 21:31N 40°02' E 003°03'1111.2
2016-Feb-08 20:33N 39°56' E 002°51'1211.7
2016-Feb-08 19:33N 39°50' E 002°38'1111.2
2016-Feb-08 18:32N 39°43' E 002°26'1010.4
2016-Feb-08 17:33N 39°37' E 002°15'1010.2
2016-Feb-08 16:33N 39°31' E 002°04'1010.4
2016-Feb-08 15:33N 39°25' E 001°53'1110.6
2016-Feb-08 14:31N 39°19' E 001°42'138 9.9
2016-Feb-08 00:33N 37°41' W 000°22'1110.9
2016-Feb-07 23:33N 37°33' W 000°31'1110.7
2016-Feb-07 22:32N 37°26' W 000°41'1110.6
2016-Feb-07 21:30N 37°18' W 000°52'1010.8
2016-Feb-07 20:33N 37°11' W 001°01'21310.2
2016-Feb-06 23:33N 35°56' W 005°10'7 7.2
2016-Feb-06 22:31N 35°54' W 005°18'0 0.0
2016-Feb-06 21:31N 35°54' W 005°18'0 0.0
2016-Feb-06 20:31N 35°54' W 005°18'0 0.0
2016-Feb-06 19:31N 35°54' W 005°18'0 0.0
2016-Feb-06 18:31N 35°54' W 005°18'0 0.0
2016-Feb-06 17:33N 35°54' W 005°18'2 2.4
2016-Feb-06 16:33N 35°56' W 005°20'3 2.7
2016-Feb-06 15:34N 35°56' W 005°23'1211.1
2016-Feb-06 14:30N 35°54' W 005°37'11810.8
2016-Feb-06 03:33N 36°17' W 008°00'1110.6
2016-Feb-06 02:33N 36°20' W 008°13'1110.1
2016-Feb-06 01:30N 36°23' W 008°26'1010.1
2016-Feb-06 00:33N 36°25' W 008°37'1110.7
2016-Feb-05 23:33N 36°28' W 008°50'1110.0
2016-Feb-05 22:30N 36°31' W 009°03'1010.0
2016-Feb-05 21:33N 36°33' W 009°14'1010.0
2016-Feb-05 20:33N 36°40' W 009°24'10 9.6
2016-Feb-05 19:30N 36°47' W 009°32'9 9.4
2016-Feb-05 18:33N 36°56' W 009°35'9 9.5
2016-Feb-05 17:33N 37°05' W 009°38'1010.0
2016-Feb-05 16:33N 37°14' W 009°41'10 9.9
2016-Feb-05 15:31N 37°24' W 009°44'2010.0
2016-Feb-05 13:31N 37°44' W 009°49'1010.4
2016-Feb-05 12:33N 37°54' W 009°52'1211.3
2016-Feb-05 11:28N 38°06' W 009°56'1010.5
2016-Feb-05 10:31N 38°15' W 009°59'1010.0
2016-Feb-05 09:33N 38°25' W 010°02'1010.5
2016-Feb-05 08:33N 38°35' W 010°05'1010.4
2016-Feb-05 07:33N 38°45' W 010°06'1110.5
2016-Feb-05 06:33N 38°56' W 010°06'1010.5
2016-Feb-05 05:33N 39°06' W 010°06'1010.5
2016-Feb-05 04:34N 39°17' W 010°06'1210.8
2016-Feb-05 03:28N 39°28' W 010°06'1010.3
2016-Feb-05 02:31N 39°38' W 010°06'1111.0
2016-Feb-05 01:31N 39°49' W 010°06'1210.1
2016-Feb-05 00:19N 40°01' W 010°06'910.6
2016-Feb-04 23:31N 40°10' W 010°06'1110.9
2016-Feb-04 22:31N 40°21' W 010°06'9 9.6
2016-Feb-04 21:33N 40°30' W 010°06'1311.6
2016-Feb-04 20:28N 40°43' W 010°06'1010.3
2016-Feb-04 19:31N 40°52' W 010°06'2210.8
2016-Feb-04 17:28N 41°15' W 010°06'1010.2
2016-Feb-04 16:31N 41°24' W 010°06'1110.0
2016-Feb-04 15:28N 41°35' W 010°06'1010.4
2016-Feb-04 14:28N 41°45' W 010°06'9 9.6
2016-Feb-04 13:31N 41°54' W 010°06'  
2016-Feb-01 04:31N 50°35' E 000°16'7 7.7
2016-Feb-01 03:33N 50°37' E 000°27'7 6.6
2016-Feb-01 02:33N 50°40' E 000°37'6 6.2
2016-Feb-01 01:33N 50°43' E 000°45'6 6.1
2016-Feb-01 00:33N 50°47' E 000°53'26 8.2
2016-Jan-31 21:20N 51°03' E 001°26'7 8.6
2016-Jan-31 20:33N 51°08' E 001°34'8 8.2
2016-Jan-31 19:33N 51°13' E 001°44'8 8.1
2016-Jan-31 18:33N 51°19' E 001°52'8 8.0
2016-Jan-31 17:33N 51°25' E 002°01'9 8.8
2016-Jan-31 16:34N 51°22' E 002°14'8 8.1
2016-Jan-31 15:33N 51°22' E 002°27'9 8.3
2016-Jan-31 14:31N 51°22' E 002°41'9 9.5
2016-Jan-31 13:33N 51°23' E 002°55'1111.1
2016-Jan-31 12:33N 51°25' E 003°13'1211.7
2016-Jan-31 11:33N 51°25' E 003°32'8 8.0
2016-Jan-31 10:33N 51°23' E 003°44'5 4.8
2016-Jan-31 09:34N 51°19' E 003°49'5 5.1
2016-Jan-31 08:34N 51°14' E 003°49'4 3.7
2016-Jan-31 07:31N 51°11' E 003°48'0 0.0
2016-Jan-31 06:31N 51°11' E 003°48'0 0.0
2016-Jan-31 05:31N 51°11' E 003°48'0 0.0
2016-Jan-31 04:33N 51°11' E 003°48'0 0.0
2016-Jan-31 03:33N 51°11' E 003°48'0 0.0
2016-Jan-31 02:33N 51°11' E 003°48'0 0.0
2016-Jan-31 01:33N 51°11' E 003°48'0 0.0
2016-Jan-31 00:33N 51°11' E 003°48'0 0.0
2016-Jan-30 23:33N 51°11' E 003°48'0 0.0
2016-Jan-30 22:33N 51°11' E 003°48'0 0.0
2016-Jan-30 21:33N 51°11' E 003°48'0 0.0
2016-Jan-30 20:33N 51°11' E 003°48'0 0.0
2016-Jan-30 19:33N 51°11' E 003°48'0 0.0
2016-Jan-30 18:33N 51°11' E 003°48'0 0.0
2016-Jan-30 17:33N 51°11' E 003°48'0 0.0
2016-Jan-30 16:33N 51°11' E 003°48'0 0.0
2016-Jan-30 15:33N 51°11' E 003°48'0 0.0
2016-Jan-30 14:32N 51°11' E 003°48'0 0.0
2016-Jan-30 13:32N 51°11' E 003°48'0 0.0
2016-Jan-30 12:32N 51°11' E 003°48'0 0.0
2016-Jan-30 11:32N 51°11' E 003°48'0 0.0
2016-Jan-30 10:32N 51°11' E 003°48'0 0.0
2016-Jan-30 09:32N 51°11' E 003°48'0 0.0
2016-Jan-30 08:32N 51°11' E 003°48'0 0.0
2016-Jan-30 07:32N 51°11' E 003°48'0 0.0
2016-Jan-30 06:32N 51°11' E 003°48'0 0.0
2016-Jan-30 05:32N 51°11' E 003°48'0 0.0
2016-Jan-30 04:32N 51°11' E 003°48'0 0.0
2016-Jan-30 03:29N 51°11' E 003°48'0 0.0
2016-Jan-30 02:32N 51°11' E 003°48'0 0.0
2016-Jan-30 01:32N 51°11' E 003°48'0 0.0
2016-Jan-30 00:32N 51°11' E 003°48'  

Dump ship's entire track history